createdAt,value
2024-04-15T00:01:58.631Z,1.60
2024-04-15T00:04:25.162Z,1.73
2024-04-15T00:06:51.670Z,1.63
2024-04-15T00:09:18.153Z,1.60
2024-04-15T00:11:47.743Z,2.00
2024-04-15T00:14:14.277Z,2.10
2024-04-15T00:16:40.905Z,1.70
2024-04-15T00:19:07.493Z,1.63
2024-04-15T00:21:34.050Z,1.77
2024-04-15T00:24:00.570Z,2.60
2024-04-15T00:26:27.060Z,1.63
2024-04-15T00:28:54.511Z,1.98
2024-04-15T00:31:21.036Z,2.22
2024-04-15T00:33:47.906Z,1.92
2024-04-15T00:36:14.474Z,2.13
2024-04-15T00:38:41.002Z,2.10
2024-04-15T00:41:07.480Z,1.80
2024-04-15T00:43:33.939Z,2.17
2024-04-15T00:46:00.514Z,1.98
2024-04-15T00:48:27.293Z,1.90
2024-04-15T00:50:53.945Z,2.00
2024-04-15T00:53:21.940Z,1.70
2024-04-15T00:55:52.223Z,2.15
2024-04-15T00:58:20.931Z,2.00
2024-04-15T01:00:48.433Z,2.05
2024-04-15T01:03:15.508Z,2.20
2024-04-15T01:05:42.437Z,1.80
2024-04-15T01:08:09.835Z,1.63
2024-04-15T01:13:05.761Z,1.52
2024-04-15T01:15:32.325Z,1.77
2024-04-15T01:17:58.880Z,1.55
2024-04-15T01:20:25.410Z,2.00
2024-04-15T01:23:15.615Z,1.35
2024-04-15T01:25:42.328Z,1.58
2024-04-15T01:28:09.026Z,1.80
2024-04-15T01:30:35.578Z,1.80
2024-04-15T01:33:02.395Z,2.33
2024-04-15T01:35:29.017Z,1.70
2024-04-15T01:37:55.519Z,1.90
2024-04-15T01:40:22.112Z,1.93
2024-04-15T01:42:48.755Z,1.60
2024-04-15T01:45:15.365Z,1.48
2024-04-15T01:47:42.085Z,1.63
2024-04-15T01:50:08.661Z,1.58
2024-04-15T01:52:35.223Z,1.80
2024-04-15T01:55:01.694Z,1.42
2024-04-15T01:57:28.457Z,1.85
2024-04-15T01:59:55.008Z,2.10
2024-04-15T02:02:21.687Z,1.90
2024-04-15T02:04:48.274Z,1.80
2024-04-15T02:07:15.216Z,1.95
2024-04-15T02:09:41.824Z,1.60
2024-04-15T02:12:08.917Z,1.73
2024-04-15T02:14:35.418Z,1.80
2024-04-15T02:17:01.881Z,2.07
2024-04-15T02:19:28.327Z,1.67
2024-04-15T02:21:54.830Z,1.70
2024-04-15T02:24:21.305Z,2.10
2024-04-15T02:26:47.891Z,2.22
2024-04-15T02:29:14.380Z,1.80
2024-04-15T02:31:40.933Z,1.73
2024-04-15T02:34:07.530Z,2.25
2024-04-15T02:36:34.148Z,1.83
2024-04-15T02:39:00.633Z,1.92
2024-04-15T02:41:27.190Z,2.30
2024-04-15T02:43:53.688Z,1.75
2024-04-15T02:46:20.236Z,1.95
2024-04-15T02:48:46.830Z,1.85
2024-04-15T02:51:13.349Z,2.00
2024-04-15T02:53:39.885Z,2.10
2024-04-15T02:56:06.473Z,2.10
2024-04-15T02:58:33.009Z,2.35
2024-04-15T03:00:59.686Z,2.20
2024-04-15T03:03:26.328Z,1.95
2024-04-15T03:05:52.778Z,1.93
2024-04-15T03:08:19.269Z,2.08
2024-04-15T03:10:45.917Z,2.17
2024-04-15T03:13:13.080Z,1.80
2024-04-15T03:15:39.683Z,2.50
2024-04-15T03:18:06.374Z,1.90
2024-04-15T03:20:33.004Z,2.40
2024-04-15T03:22:59.492Z,1.85
2024-04-15T03:25:26.020Z,2.10
2024-04-15T03:27:52.888Z,1.90
2024-04-15T03:30:19.452Z,2.33
2024-04-15T03:32:46.216Z,1.90
2024-04-15T03:35:14.533Z,1.70
2024-04-15T03:37:41.774Z,2.65
2024-04-15T03:40:08.867Z,2.08
2024-04-15T03:42:35.380Z,2.73
2024-04-15T03:45:01.861Z,1.88
2024-04-15T03:47:28.437Z,2.17
2024-04-15T03:49:54.999Z,2.30
2024-04-15T03:52:21.568Z,2.20
2024-04-15T03:54:48.248Z,2.10
2024-04-15T03:57:14.798Z,2.50
2024-04-15T03:59:41.325Z,2.00
2024-04-15T04:02:07.885Z,2.40
2024-04-15T04:04:34.493Z,2.20
2024-04-15T04:07:03.941Z,2.30
2024-04-15T04:09:30.481Z,2.50
2024-04-15T04:11:57.069Z,2.22
2024-04-15T04:14:25.286Z,2.03
2024-04-15T04:16:51.776Z,2.65
2024-04-15T04:19:25.386Z,2.53
2024-04-15T04:21:52.399Z,2.45
2024-04-15T04:24:18.935Z,2.78
2024-04-15T04:26:45.498Z,2.88
2024-04-15T04:29:12.034Z,2.40
2024-04-15T04:31:39.295Z,2.60
2024-04-15T04:34:05.898Z,3.00
2024-04-15T04:36:32.638Z,2.50
2024-04-15T04:38:59.177Z,2.40
2024-04-15T04:41:25.748Z,2.63
2024-04-15T04:43:52.294Z,2.53
2024-04-15T04:46:19.137Z,2.47
2024-04-15T04:48:45.734Z,2.50
2024-04-15T04:51:12.695Z,2.13
2024-04-15T04:53:39.259Z,3.13
2024-04-15T04:56:11.284Z,3.07
2024-04-15T04:58:38.575Z,2.45
2024-04-15T05:01:12.604Z,2.78
2024-04-15T05:03:46.398Z,2.55
2024-04-15T05:06:14.813Z,3.00
2024-04-15T05:08:42.335Z,2.40
2024-04-15T05:11:08.910Z,2.58
2024-04-15T05:13:36.210Z,2.83
2024-04-15T05:16:13.536Z,3.38
2024-04-15T05:18:41.512Z,3.20
2024-04-15T05:21:16.225Z,3.10
2024-04-15T05:23:42.978Z,2.80
2024-04-15T05:26:09.935Z,2.67
2024-04-15T05:28:36.424Z,3.00
2024-04-15T05:31:03.604Z,3.08
2024-04-15T05:33:30.106Z,3.33
2024-04-15T05:35:56.933Z,2.75
2024-04-15T05:38:23.429Z,2.97
2024-04-15T05:40:49.996Z,2.80
2024-04-15T05:43:16.584Z,2.88
2024-04-15T05:45:43.204Z,2.20
2024-04-15T05:48:09.985Z,2.85
2024-04-15T05:50:36.777Z,2.85
2024-04-15T05:53:03.317Z,2.55
2024-04-15T05:55:29.946Z,2.78
2024-04-15T05:57:56.539Z,2.60
2024-04-15T06:00:23.172Z,2.85
2024-04-15T06:02:49.771Z,3.10
2024-04-15T06:05:16.621Z,2.85
2024-04-15T06:07:43.358Z,2.67
2024-04-15T06:10:10.086Z,2.60
2024-04-15T06:12:36.622Z,3.13
2024-04-15T06:15:03.282Z,2.85
2024-04-15T06:17:29.868Z,2.72
2024-04-15T06:19:56.311Z,2.90
2024-04-15T06:22:22.856Z,2.50
2024-04-15T06:24:49.529Z,2.35
2024-04-15T06:27:16.082Z,2.30
2024-04-15T06:29:42.602Z,2.40
2024-04-15T06:32:09.394Z,1.98
2024-04-15T06:34:35.867Z,1.90
2024-04-15T06:37:02.470Z,2.03
2024-04-15T06:39:29.099Z,2.13
2024-04-15T06:41:55.631Z,1.58
2024-04-15T06:44:22.175Z,2.20
2024-04-15T06:46:48.753Z,2.00
2024-04-15T06:49:16.316Z,2.20
2024-04-15T06:51:42.810Z,2.55
2024-04-15T06:54:09.294Z,2.60
2024-04-15T06:56:37.694Z,2.38
2024-04-15T06:59:04.232Z,1.40
2024-04-15T07:01:33.633Z,1.77
2024-04-15T07:04:02.460Z,1.88
2024-04-15T07:06:29.029Z,1.80
2024-04-15T07:08:55.558Z,2.08
2024-04-15T07:11:22.187Z,2.17
2024-04-15T07:13:48.990Z,1.80
2024-04-15T07:16:15.563Z,2.20
2024-04-15T07:18:42.255Z,1.65
2024-04-15T07:21:08.827Z,1.77
2024-04-15T07:23:35.318Z,1.80
2024-04-15T07:26:02.368Z,1.90
2024-04-15T07:28:29.191Z,1.92
2024-04-15T07:31:03.313Z,1.58
2024-04-15T07:33:29.990Z,1.45
2024-04-15T07:35:58.167Z,1.50
2024-04-15T07:38:25.031Z,1.50
2024-04-15T07:40:51.681Z,1.55
2024-04-15T07:43:18.135Z,1.90
2024-04-15T07:45:45.529Z,2.30
2024-04-15T07:48:12.215Z,1.87
2024-04-15T07:50:38.799Z,1.88
2024-04-15T07:53:05.350Z,1.50
2024-04-15T07:55:31.852Z,1.98
2024-04-15T07:57:58.637Z,1.90
2024-04-15T08:00:25.239Z,2.50
2024-04-15T08:02:51.958Z,2.30
2024-04-15T08:05:18.462Z,2.30
2024-04-15T08:07:45.318Z,2.10
2024-04-15T08:10:12.119Z,2.60
2024-04-15T08:12:39.512Z,2.70
2024-04-15T08:15:07.104Z,2.70
2024-04-15T08:17:33.690Z,2.47
2024-04-15T08:20:00.316Z,2.58
2024-04-15T08:22:27.014Z,2.63
2024-04-15T08:24:53.595Z,2.73
2024-04-15T08:27:20.122Z,3.55
2024-04-15T08:29:46.802Z,2.10
2024-04-15T08:32:13.391Z,2.58
2024-04-15T08:34:39.958Z,2.90
2024-04-15T08:37:06.564Z,2.83
2024-04-15T08:39:33.124Z,2.53
2024-04-15T08:42:20.104Z,2.65
2024-04-15T08:44:47.254Z,2.70
2024-04-15T08:47:23.627Z,3.45
2024-04-15T08:49:50.812Z,2.27
2024-04-15T08:52:18.360Z,2.28
2024-04-15T08:54:45.071Z,2.58
2024-04-15T08:57:12.171Z,2.47
2024-04-15T08:59:40.419Z,2.10
2024-04-15T09:02:07.409Z,2.63
2024-04-15T09:04:34.812Z,2.28
2024-04-15T09:07:01.802Z,2.15
2024-04-15T09:09:28.293Z,2.15
2024-04-15T09:11:55.682Z,2.40
2024-04-15T09:14:22.604Z,2.33
2024-04-15T09:16:49.439Z,1.83
2024-04-15T09:19:16.188Z,1.88
2024-04-15T09:21:42.729Z,2.00
2024-04-15T09:24:10.458Z,2.50
2024-04-15T09:26:39.822Z,2.30
2024-04-15T09:29:08.032Z,2.20
2024-04-15T09:31:34.585Z,2.30
2024-04-15T09:34:01.156Z,1.70
2024-04-15T09:36:27.664Z,2.92
2024-04-15T09:38:55.547Z,2.33
2024-04-15T09:41:23.199Z,2.08
2024-04-15T09:43:52.352Z,2.15
2024-04-15T09:46:21.028Z,1.85
2024-04-15T09:48:49.573Z,2.20
2024-04-15T09:51:23.239Z,2.27
2024-04-15T09:53:54.177Z,2.25
2024-04-15T09:56:26.812Z,1.90
2024-04-15T09:58:55.363Z,1.98
2024-04-15T10:01:26.886Z,1.73
2024-04-15T10:03:54.395Z,1.87
2024-04-15T10:06:31.308Z,2.13
2024-04-15T10:08:59.797Z,1.63
2024-04-15T10:11:28.827Z,2.30
2024-04-15T10:13:55.872Z,2.15
2024-04-15T10:16:35.403Z,1.90
2024-04-15T10:19:05.340Z,1.65
2024-04-15T10:21:32.659Z,1.80
2024-04-15T10:23:59.122Z,2.20
2024-04-15T10:26:27.401Z,1.98
2024-04-15T10:29:12.119Z,2.17
2024-04-15T10:31:42.301Z,2.08
2024-04-15T10:34:09.221Z,2.90
2024-04-15T10:36:39.809Z,2.97
2024-04-15T10:39:06.352Z,3.17
2024-04-15T10:41:34.977Z,3.90
2024-04-15T10:44:01.530Z,3.00
2024-04-15T10:46:28.489Z,2.90
2024-04-15T10:48:56.042Z,3.60
2024-04-15T10:51:22.713Z,3.08
2024-04-15T10:53:51.592Z,3.53
2024-04-15T10:56:19.858Z,3.10
2024-04-15T10:58:46.755Z,2.83
2024-04-15T11:01:16.759Z,2.88
2024-04-15T11:03:44.249Z,3.10
2024-04-15T11:06:10.987Z,2.40
2024-04-15T11:08:37.690Z,2.30
2024-04-15T11:11:04.938Z,2.17
2024-04-15T11:13:31.624Z,2.90
2024-04-15T11:15:59.614Z,2.90
2024-04-15T11:18:26.378Z,2.90
2024-04-15T11:20:59.817Z,2.28
2024-04-15T11:23:26.491Z,2.60
2024-04-15T11:25:53.731Z,2.10
2024-04-15T11:28:20.972Z,1.95
2024-04-15T11:30:48.143Z,1.90
2024-04-15T11:33:15.532Z,2.22
2024-04-15T11:35:51.811Z,2.00
2024-04-15T11:38:18.562Z,1.90
2024-04-15T11:40:45.835Z,2.13
2024-04-15T11:43:12.491Z,2.20
2024-04-15T11:45:49.896Z,2.45
2024-04-15T11:48:16.458Z,2.63
2024-04-15T11:50:44.078Z,3.10
2024-04-15T11:53:10.623Z,2.50
2024-04-15T11:55:37.430Z,2.30
2024-04-15T11:58:04.240Z,2.90
2024-04-15T12:00:30.745Z,2.83
2024-04-15T12:02:57.462Z,2.33
2024-04-15T12:05:27.411Z,2.80
2024-04-15T12:07:54.198Z,2.30
2024-04-15T12:10:20.809Z,2.20
2024-04-15T12:12:47.448Z,2.50
2024-04-15T12:15:14.925Z,2.38
2024-04-15T12:17:41.504Z,2.58
2024-04-15T12:20:08.153Z,2.10
2024-04-15T12:22:34.688Z,2.50
2024-04-15T12:25:07.622Z,2.30
2024-04-15T12:27:38.663Z,2.25
2024-04-15T12:30:07.261Z,2.30
2024-04-15T12:32:34.886Z,2.00
2024-04-15T12:35:01.525Z,1.98
2024-04-15T12:37:28.158Z,1.40
2024-04-15T12:39:54.856Z,1.33
2024-04-15T12:42:21.406Z,1.60
2024-04-15T12:44:47.919Z,1.43
2024-04-15T12:47:14.508Z,1.50
2024-04-15T12:49:41.173Z,1.20
2024-04-15T12:52:10.956Z,1.33
2024-04-15T12:54:38.252Z,1.30
2024-04-15T12:57:05.183Z,0.90
2024-04-15T12:59:34.467Z,0.90
2024-04-15T13:02:07.346Z,1.00
2024-04-15T13:04:36.473Z,1.20
2024-04-15T13:07:03.680Z,1.00
2024-04-15T13:09:30.747Z,1.20
2024-04-15T13:11:57.400Z,1.20
2024-04-15T13:14:23.942Z,1.00
2024-04-15T13:16:51.769Z,0.98
2024-04-15T13:19:18.476Z,0.80
2024-04-15T13:21:45.654Z,0.87
2024-04-15T13:24:12.192Z,0.90
2024-04-15T13:26:39.003Z,0.95
2024-04-15T13:29:07.415Z,0.80
2024-04-15T13:31:34.142Z,0.65
2024-04-15T13:34:01.452Z,1.00
2024-04-15T13:36:28.515Z,1.15
2024-04-15T13:38:55.408Z,0.98
2024-04-15T13:41:22.072Z,0.70
2024-04-15T13:43:49.235Z,0.90
2024-04-15T13:46:16.001Z,0.80
2024-04-15T13:48:42.548Z,1.10
2024-04-15T13:51:09.064Z,0.73
2024-04-15T13:53:35.565Z,0.90
2024-04-15T13:56:02.087Z,0.90
2024-04-15T13:58:29.138Z,0.77
2024-04-15T14:00:55.887Z,0.90
2024-04-15T14:03:22.604Z,1.00
2024-04-15T14:05:50.777Z,1.13
2024-04-15T14:08:17.686Z,1.05
2024-04-15T14:10:45.288Z,0.90
2024-04-15T14:13:12.033Z,0.95
2024-04-15T14:15:38.731Z,0.70
2024-04-15T14:18:06.081Z,0.88
2024-04-15T14:20:32.914Z,0.90
2024-04-15T14:22:59.503Z,0.70
2024-04-15T14:25:26.435Z,0.85
2024-04-15T14:27:53.128Z,0.80
2024-04-15T14:30:19.612Z,0.88
2024-04-15T14:32:46.248Z,0.95
2024-04-15T14:35:13.125Z,0.80
2024-04-15T14:37:39.592Z,1.02
2024-04-15T14:40:19.560Z,0.82
2024-04-15T14:42:49.947Z,0.70
2024-04-15T14:45:16.533Z,1.20
2024-04-15T14:47:43.114Z,0.80
2024-04-15T14:50:11.010Z,0.98
2024-04-15T14:52:37.517Z,1.30
2024-04-15T14:55:04.450Z,1.40
2024-04-15T14:57:31.131Z,1.30
2024-04-15T14:59:57.609Z,1.27
2024-04-15T15:02:24.217Z,1.30
2024-04-15T15:04:50.786Z,0.88
2024-04-15T15:07:17.387Z,1.35
2024-04-15T15:09:43.965Z,1.15
2024-04-15T15:12:10.577Z,1.00
2024-04-15T15:14:37.595Z,0.90
2024-04-15T15:17:04.854Z,0.93
2024-04-15T15:19:32.057Z,1.55
2024-04-15T15:21:58.590Z,1.05
2024-04-15T15:24:25.070Z,1.00
2024-04-15T15:26:51.575Z,1.10
2024-04-15T15:29:18.110Z,1.40
2024-04-15T15:31:44.680Z,1.60
2024-04-15T15:34:11.396Z,2.08
2024-04-15T15:36:38.304Z,0.80
2024-04-15T15:39:07.699Z,1.42
2024-04-15T15:41:34.794Z,1.48
2024-04-15T15:44:01.428Z,1.40
2024-04-15T15:46:28.239Z,2.22
2024-04-15T15:48:54.895Z,1.57
2024-04-15T15:51:21.369Z,1.50
2024-04-15T15:53:47.913Z,1.67
2024-04-15T15:56:16.538Z,1.23
2024-04-15T15:58:44.116Z,1.33
2024-04-15T16:01:10.774Z,1.83
2024-04-15T16:03:37.524Z,1.40
2024-04-15T16:06:05.187Z,1.23
2024-04-15T16:08:31.907Z,1.63
2024-04-15T16:10:58.587Z,1.40
2024-04-15T16:13:25.249Z,1.43
2024-04-15T16:15:52.197Z,1.05
2024-04-15T16:18:18.844Z,1.15
2024-04-15T16:20:48.665Z,1.00
2024-04-15T16:23:15.175Z,1.23
2024-04-15T16:25:41.742Z,1.03
2024-04-15T16:28:08.706Z,1.20
2024-04-15T16:30:35.189Z,1.20
2024-04-15T16:33:01.784Z,1.40
2024-04-15T16:35:28.320Z,1.00
2024-04-15T16:37:54.925Z,1.00
2024-04-15T16:40:21.601Z,1.10
2024-04-15T16:42:48.139Z,1.20
2024-04-15T16:45:14.959Z,1.05
2024-04-15T16:47:41.990Z,1.00
2024-04-15T16:50:08.572Z,0.70
2024-04-15T16:52:35.148Z,1.20
2024-04-15T16:55:01.744Z,1.20
2024-04-15T16:57:28.343Z,0.93
2024-04-15T16:59:54.838Z,1.20
2024-04-15T17:02:21.333Z,1.00
2024-04-15T17:04:47.996Z,0.93
2024-04-15T17:07:14.799Z,1.10
2024-04-15T17:09:41.359Z,1.52
2024-04-15T17:12:07.978Z,1.40
2024-04-15T17:14:34.639Z,1.63
2024-04-15T17:17:01.307Z,1.42
2024-04-15T17:19:28.012Z,1.48
2024-04-15T17:21:54.687Z,0.90
2024-04-15T17:24:21.202Z,1.40
2024-04-15T17:26:49.389Z,0.97
2024-04-15T17:29:15.866Z,1.10
2024-04-15T17:31:42.471Z,1.20
2024-04-15T17:34:09.113Z,1.27
2024-04-15T17:36:35.898Z,1.30
2024-04-15T17:39:02.549Z,1.70
2024-04-15T17:41:29.106Z,1.35
2024-04-15T17:43:56.254Z,1.17
2024-04-15T17:46:23.060Z,1.00
2024-04-15T17:48:49.677Z,1.40
2024-04-15T17:51:16.349Z,1.00
2024-04-15T17:53:42.877Z,1.35
2024-04-15T17:56:09.504Z,1.42
2024-04-15T17:58:36.201Z,1.50
2024-04-15T18:01:02.818Z,1.58
2024-04-15T18:03:29.366Z,1.43
2024-04-15T18:05:55.971Z,1.45
2024-04-15T18:08:22.511Z,1.40
2024-04-15T18:10:49.081Z,1.65
2024-04-15T18:13:15.682Z,1.30
2024-04-15T18:15:42.394Z,1.07
2024-04-15T18:18:09.247Z,1.10
2024-04-15T18:20:35.756Z,1.10
2024-04-15T18:23:02.313Z,1.20
2024-04-15T18:25:29.083Z,1.10
2024-04-15T18:27:55.801Z,0.90
2024-04-15T18:30:22.329Z,1.10
2024-04-15T18:32:49.051Z,1.08
2024-04-15T18:35:15.715Z,1.10
2024-04-15T18:37:42.324Z,1.17
2024-04-15T18:40:09.489Z,1.30
2024-04-15T18:42:36.064Z,1.10
2024-04-15T18:45:06.892Z,1.50
2024-04-15T18:47:35.052Z,1.40
2024-04-15T18:50:01.663Z,1.85
2024-04-15T18:52:28.415Z,1.13
2024-04-15T18:54:55.108Z,1.00
2024-04-15T18:57:21.757Z,0.88
2024-04-15T18:59:48.294Z,0.75
2024-04-15T19:02:14.919Z,0.80
2024-04-15T19:04:41.532Z,0.70
2024-04-15T19:07:08.527Z,0.88
2024-04-15T19:09:35.046Z,1.00
2024-04-15T19:12:01.946Z,0.80
2024-04-15T19:14:37.331Z,0.80
2024-04-15T19:17:13.097Z,1.00
2024-04-15T19:19:39.724Z,0.85
2024-04-15T19:22:06.454Z,0.82
2024-04-15T19:24:33.143Z,0.73
2024-04-15T19:26:59.820Z,1.27
2024-04-15T19:29:26.332Z,1.00
2024-04-15T19:31:52.993Z,1.00
2024-04-15T19:34:19.634Z,1.20
2024-04-15T19:36:46.352Z,0.93
2024-04-15T19:39:12.999Z,0.93
2024-04-15T19:41:40.022Z,1.00
2024-04-15T19:44:06.898Z,0.90
2024-04-15T19:46:33.592Z,0.98
2024-04-15T19:49:00.666Z,0.90
2024-04-15T19:51:27.236Z,1.10
2024-04-15T19:53:53.904Z,0.87
2024-04-15T19:56:20.407Z,0.90
2024-04-15T19:58:47.008Z,1.20
2024-04-15T20:01:13.622Z,1.10
2024-04-15T20:03:40.300Z,0.80
2024-04-15T20:06:08.110Z,1.17
2024-04-15T20:08:35.157Z,0.82
2024-04-15T20:11:01.777Z,1.10
2024-04-15T20:13:28.466Z,1.20
2024-04-15T20:15:55.182Z,1.20
2024-04-15T20:18:21.822Z,1.37
2024-04-15T20:20:48.528Z,1.27
2024-04-15T20:23:16.750Z,1.10
2024-04-15T20:25:47.079Z,0.90
2024-04-15T20:28:13.737Z,1.45
2024-04-15T20:30:41.116Z,0.90
2024-04-15T20:33:07.745Z,1.10
2024-04-15T20:35:34.386Z,1.10
2024-04-15T20:38:00.873Z,0.88
2024-04-15T20:40:35.399Z,1.20
2024-04-15T20:43:07.767Z,0.80
2024-04-15T20:45:34.307Z,1.10
2024-04-15T20:48:01.027Z,1.20
2024-04-15T20:50:27.697Z,1.08
2024-04-15T20:52:57.395Z,1.15
2024-04-15T20:55:23.998Z,1.03
2024-04-15T20:57:50.640Z,0.90
2024-04-15T21:00:17.227Z,1.20
2024-04-15T21:02:43.841Z,1.10
2024-04-15T21:05:10.547Z,0.90
2024-04-15T21:07:37.178Z,0.87
2024-04-15T21:10:03.956Z,0.80
2024-04-15T21:12:30.574Z,1.20
2024-04-15T21:14:57.144Z,1.20
2024-04-15T21:17:23.742Z,0.80
2024-04-15T21:19:50.349Z,0.90
2024-04-15T21:22:16.883Z,1.00
2024-04-15T21:24:43.482Z,1.08
2024-04-15T21:27:10.061Z,0.90
2024-04-15T21:29:37.715Z,1.00
2024-04-15T21:32:04.460Z,0.90
2024-04-15T21:34:31.271Z,1.00
2024-04-15T21:36:58.040Z,1.20
2024-04-15T21:39:24.707Z,1.13
2024-04-15T21:41:51.458Z,1.10
2024-04-15T21:44:19.071Z,1.00
2024-04-15T21:46:45.642Z,1.00
2024-04-15T21:49:13.283Z,1.08
2024-04-15T21:51:39.880Z,1.15
2024-04-15T21:54:06.821Z,1.50
2024-04-15T21:56:33.418Z,1.00
2024-04-15T21:58:59.982Z,1.60
2024-04-15T22:01:26.626Z,1.30
2024-04-15T22:03:54.646Z,1.20
2024-04-15T22:06:22.504Z,1.20
2024-04-15T22:08:49.016Z,0.83
2024-04-15T22:11:15.664Z,1.20
2024-04-15T22:13:42.270Z,1.25
2024-04-15T22:16:08.784Z,1.10
2024-04-15T22:18:35.347Z,1.23
2024-04-15T22:21:13.124Z,1.50
2024-04-15T22:26:25.577Z,1.60
2024-04-15T22:28:52.136Z,1.48
2024-04-15T22:31:18.839Z,1.75
2024-04-15T22:33:45.477Z,1.90
2024-04-15T22:36:12.909Z,1.63
2024-04-15T22:38:40.457Z,1.52
2024-04-15T22:41:07.031Z,1.40
2024-04-15T22:43:33.601Z,2.00
2024-04-15T22:46:00.300Z,1.57
2024-04-15T22:48:26.965Z,1.63
2024-04-15T22:50:53.504Z,1.40
2024-04-15T22:53:20.124Z,2.05
2024-04-15T22:55:46.805Z,1.63
2024-04-15T22:58:13.401Z,1.50
2024-04-15T23:00:40.058Z,1.65
2024-04-15T23:03:06.686Z,1.80
2024-04-15T23:05:33.237Z,1.92
2024-04-15T23:07:59.921Z,1.30
2024-04-15T23:10:27.682Z,1.50
2024-04-15T23:12:54.323Z,1.70
2024-04-15T23:15:20.854Z,1.45
2024-04-15T23:17:47.480Z,1.70
2024-04-15T23:20:14.177Z,1.60
2024-04-15T23:22:40.885Z,1.57
2024-04-15T23:25:07.667Z,1.90
2024-04-15T23:27:34.143Z,1.77
2024-04-15T23:30:00.679Z,1.75
2024-04-15T23:32:27.345Z,1.50
2024-04-15T23:34:53.937Z,2.17
2024-04-15T23:37:20.551Z,1.80
2024-04-15T23:39:47.275Z,1.65
2024-04-15T23:42:13.926Z,1.70
2024-04-15T23:44:40.944Z,1.92
2024-04-15T23:47:07.548Z,1.70
2024-04-15T23:49:34.145Z,1.45
2024-04-15T23:52:00.810Z,1.67
2024-04-15T23:54:27.301Z,2.05
2024-04-15T23:56:53.845Z,1.90
2024-04-15T23:59:20.543Z,1.27
